Time;durP1;ratioP1;P1;durP2;ratioP2;P2;SDS_P1;SDS_P2;PMS_P1;PMS_P2;Temp;Humidity;BMP_temperature;BMP_pressure;BME280_temperature;BME280_humidity;BME280_pressure;Samples;Min_cycle;Max_cycle;Signal;HPM_P1;HPM_P2
2023/10/09 00:00:55;;;;;;;29.27;15.75;;;15.00;99.90;;;;;;5031282;28;20565;-75
2023/10/09 00:03:24;;;;;;;30.35;16.00;;;15.00;99.90;;;;;;5053965;28;20119;-75
2023/10/09 00:05:53;;;;;;;30.23;15.82;;;15.00;99.90;;;;;;5035350;28;20045;-75
2023/10/09 00:08:22;;;;;;;33.85;16.88;;;14.90;99.90;;;;;;5053210;28;20392;-75
2023/10/09 00:10:57;;;;;;;30.85;17.00;;;14.90;99.90;;;;;;5056229;28;20045;-75
2023/10/09 00:13:32;;;;;;;35.00;16.45;;;14.90;99.90;;;;;;5039293;28;20048;-75
2023/10/09 00:16:14;;;;;;;32.73;16.60;;;14.90;99.90;;;;;;5052628;28;20506;-75
2023/10/09 00:18:46;;;;;;;35.20;17.80;;;14.90;99.90;;;;;;5035926;28;20045;-75
2023/10/09 00:21:22;;;;;;;31.92;17.67;;;14.90;99.90;;;;;;5053264;28;20068;-75
2023/10/09 00:23:59;;;;;;;37.72;18.67;;;14.90;99.90;;;;;;5052697;28;20044;-75
2023/10/09 00:26:25;;;;;;;37.45;17.05;;;14.90;99.90;;;;;;5053347;28;20040;-75
2023/10/09 00:28:51;;;;;;;33.08;17.75;;;14.90;99.90;;;;;;5051761;28;20446;-75
2023/10/09 00:31:29;;;;;;;37.08;17.80;;;14.90;99.90;;;;;;5035752;28;20128;-75
2023/10/09 00:34:01;;;;;;;34.47;17.60;;;14.90;99.90;;;;;;5053291;28;20055;-75
2023/10/09 00:36:28;;;;;;;35.88;18.73;;;14.80;99.90;;;;;;5052493;28;20484;-75
2023/10/09 00:38:54;;;;;;;35.60;18.92;;;14.80;99.90;;;;;;5052779;28;20068;-75
2023/10/09 00:41:22;;;;;;;37.20;19.02;;;14.80;99.90;;;;;;5053151;28;20072;-75
2023/10/09 00:43:49;;;;;;;33.97;18.90;;;14.70;99.90;;;;;;5051772;28;20056;-75
2023/10/09 00:48:48;;;;;;;37.08;18.98;;;14.70;99.90;;;;;;5052660;28;20068;-75
2023/10/09 00:51:18;;;;;;;34.40;17.67;;;14.70;99.90;;;;;;5051981;28;20044;-75
2023/10/09 00:53:51;;;;;;;38.05;19.15;;;14.80;99.90;;;;;;5034606;28;20049;-75
2023/10/09 00:59:08;;;;;;;39.27;19.93;;;14.70;99.90;;;;;;5052452;28;20115;-75
2023/10/09 01:01:41;;;;;;;38.22;19.45;;;14.70;99.90;;;;;;5016771;28;20492;-75
2023/10/09 01:04:10;;;;;;;35.42;18.10;;;14.70;99.90;;;;;;5014155;28;20053;-75
2023/10/09 01:06:43;;;;;;;37.03;19.30;;;14.70;99.90;;;;;;5041276;28;20041;-75
2023/10/09 01:09:14;;;;;;;36.40;18.90;;;14.70;99.90;;;;;;5052198;28;20127;-75
2023/10/09 01:12:03;;;;;;;39.10;19.00;;;14.70;99.90;;;;;;5034696;28;20053;-75
2023/10/09 01:14:38;;;;;;;40.17;20.58;;;14.70;99.90;;;;;;5052966;28;20041;-75
2023/10/09 01:17:10;;;;;;;38.90;20.73;;;14.70;99.90;;;;;;5052512;28;20048;-75
2023/10/09 01:19:36;;;;;;;48.00;22.08;;;14.70;99.90;;;;;;5051881;28;20053;-75
2023/10/09 01:22:12;;;;;;;45.50;21.67;;;14.60;99.90;;;;;;5052257;28;20055;-75
2023/10/09 01:24:41;;;;;;;38.97;21.20;;;14.70;99.90;;;;;;5034262;28;20053;-75
2023/10/09 01:27:14;;;;;;;42.50;21.25;;;14.60;99.90;;;;;;5052335;28;20056;-75
2023/10/09 01:29:41;;;;;;;44.03;23.02;;;14.60;99.90;;;;;;5034910;28;20103;-74
2023/10/09 01:32:16;;;;;;;37.08;19.58;;;14.60;99.90;;;;;;5051528;28;20055;-75
2023/10/09 01:34:42;;;;;;;40.35;21.25;;;14.60;99.90;;;;;;5033623;28;20084;-74
2023/10/09 01:37:29;;;;;;;39.88;21.35;;;14.50;99.90;;;;;;5051724;28;20041;-75
2023/10/09 01:40:01;;;;;;;41.80;21.60;;;14.50;99.90;;;;;;5050801;28;20045;-75
2023/10/09 01:42:44;;;;;;;44.10;22.55;;;14.50;99.90;;;;;;5033864;28;20087;-75
2023/10/09 01:45:11;;;;;;;46.05;21.85;;;14.50;99.90;;;;;;5051643;28;20466;-75
2023/10/09 01:47:37;;;;;;;44.42;23.63;;;14.50;99.90;;;;;;5051250;28;20111;-75
2023/10/09 01:50:19;;;;;;;49.72;23.25;;;14.40;99.90;;;;;;5034219;28;20063;-74
2023/10/09 01:52:48;;;;;;;44.97;22.83;;;14.40;99.90;;;;;;5033725;28;20045;-74
2023/10/09 01:55:27;;;;;;;48.22;22.92;;;15.10;99.90;;;;;;5052422;28;20124;-75
2023/10/09 01:57:53;;;;;;;50.97;23.95;;;14.40;99.90;;;;;;5052135;28;20033;-75
2023/10/09 02:00:23;;;;;;;46.22;22.83;;;14.40;99.90;;;;;;5051674;28;20040;-74
2023/10/09 02:02:50;;;;;;;45.80;23.02;;;14.50;99.90;;;;;;5033458;28;20128;-75
2023/10/09 02:08:02;;;;;;;47.45;23.85;;;14.40;99.90;;;;;;5054424;28;20053;-74
2023/10/09 02:12:59;;;;;;;56.70;24.88;;;14.40;99.90;;;;;;5055055;28;20311;-74
2023/10/09 02:18:25;;;;;;;49.20;24.25;;;14.40;99.90;;;;;;5036117;28;20053;-74
2023/10/09 02:24:49;;;;;;;47.30;23.55;;;14.40;99.90;;;;;;5036420;28;20045;-74
2023/10/09 02:26:46;;;;;;;44.80;21.93;;;14.40;99.90;;;;;;5022467;28;20045;-74
2023/10/09 02:29:18;;;;;;;45.78;21.70;;;14.40;99.90;;;;;;5017123;28;20060;-74
2023/10/09 02:31:47;;;;;;;39.97;20.83;;;14.40;99.90;;;;;;5035886;28;20030;-74
2023/10/09 02:34:12;;;;;;;43.10;21.92;;;14.50;99.90;;;;;;5035825;28;20187;-74
2023/10/09 02:36:41;;;;;;;38.90;21.15;;;14.50;99.90;;;;;;5034905;28;20037;-74
2023/10/09 02:39:21;;;;;;;36.75;19.75;;;14.50;99.90;;;;;;5035186;28;20056;-74
2023/10/09 02:41:49;;;;;;;37.92;18.38;;;14.60;99.90;;;;;;5035131;28;20135;-73
2023/10/09 02:44:15;;;;;;;30.77;16.00;;;14.70;99.90;;;;;;5034640;28;20476;-74
2023/10/09 02:46:41;;;;;;;30.70;15.55;;;14.90;99.90;;;;;;5035519;28;20042;-75
2023/10/09 02:49:09;;;;;;;28.50;14.25;;;14.90;99.90;;;;;;5026590;28;20532;-75
2023/10/09 02:51:41;;;;;;;26.13;14.30;;;15.00;99.90;;;;;;5034175;28;20400;-75
2023/10/09 02:54:17;;;;;;;26.92;13.43;;;15.10;99.90;;;;;;5033815;28;20407;-75
2023/10/09 02:56:47;;;;;;;23.52;11.80;;;15.20;99.90;;;;;;5033784;28;20053;-75
2023/10/09 02:59:13;;;;;;;24.98;11.35;;;15.20;99.90;;;;;;5034805;28;20040;-75
2023/10/09 03:01:40;;;;;;;24.02;11.23;;;15.30;99.90;;;;;;5035095;28;20045;-74
2023/10/09 03:04:10;;;;;;;20.13;11.75;;;15.40;99.90;;;;;;5033988;28;20493;-75
2023/10/09 03:06:43;;;;;;;20.35;9.13;;;15.40;99.90;;;;;;5033461;28;20272;-74
2023/10/09 03:09:17;;;;;;;14.52;8.40;;;15.50;99.90;;;;;;5034117;28;20094;-75
2023/10/09 03:12:00;;;;;;;20.73;9.57;;;15.50;99.90;;;;;;5033658;28;20044;-75
2023/10/09 03:14:27;;;;;;;16.00;8.70;;;15.60;99.90;;;;;;5034865;28;20409;-75
2023/10/09 03:16:53;;;;;;;17.58;8.45;;;15.60;99.90;;;;;;5034504;28;20049;-75
2023/10/09 03:19:19;;;;;;;18.45;8.70;;;15.60;99.90;;;;;;5032935;28;20040;-74
2023/10/09 03:21:47;;;;;;;18.58;7.50;;;15.70;99.90;;;;;;5033667;28;20496;-74
2023/10/09 03:24:12;;;;;;;17.88;7.55;;;15.70;99.90;;;;;;5033511;28;20064;-75
2023/10/09 03:26:38;;;;;;;15.05;7.75;;;15.70;99.90;;;;;;5032678;28;20476;-75
2023/10/09 03:29:09;;;;;;;17.20;7.68;;;15.70;99.90;;;;;;5033671;28;20049;-75
2023/10/09 03:31:36;;;;;;;17.15;7.80;;;15.80;99.90;;;;;;5033851;28;20044;-75
2023/10/09 03:34:06;;;;;;;19.40;8.05;;;15.80;99.90;;;;;;5033210;28;20053;-74
2023/10/09 03:36:37;;;;;;;16.13;7.15;;;15.80;99.90;;;;;;5034617;28;20128;-75
2023/10/09 03:39:07;;;;;;;16.35;7.88;;;15.80;99.90;;;;;;5032088;28;20052;-75
2023/10/09 03:41:40;;;;;;;16.83;7.13;;;15.80;99.90;;;;;;5033180;28;20053;-75
2023/10/09 03:44:06;;;;;;;20.45;7.05;;;15.90;99.90;;;;;;5032340;28;20107;-75
2023/10/09 03:46:33;;;;;;;20.40;8.27;;;15.90;99.90;;;;;;5033699;28;20128;-74
2023/10/09 03:49:04;;;;;;;15.75;7.15;;;15.90;99.90;;;;;;5032507;28;20408;-75
2023/10/09 03:51:30;;;;;;;12.93;7.18;;;15.90;99.90;;;;;;5034370;28;20049;-75
2023/10/09 03:53:59;;;;;;;17.00;7.60;;;15.90;99.90;;;;;;5032860;28;20547;-75
2023/10/09 03:56:24;;;;;;;17.10;6.93;;;15.90;99.90;;;;;;5033381;28;20049;-75
2023/10/09 03:58:54;;;;;;;17.25;7.20;;;16.00;99.90;;;;;;5033771;28;20555;-75
2023/10/09 04:01:28;;;;;;;17.13;7.20;;;16.00;99.90;;;;;;5032094;28;20057;-74
2023/10/09 04:03:55;;;;;;;15.32;7.03;;;16.00;99.90;;;;;;5031809;28;20451;-75
2023/10/09 04:06:28;;;;;;;20.25;6.97;;;16.00;99.90;;;;;;5031140;28;20489;-75
2023/10/09 04:08:54;;;;;;;15.77;6.97;;;16.00;99.90;;;;;;5033760;28;20136;-75
2023/10/09 04:11:23;;;;;;;17.13;6.65;;;16.00;99.90;;;;;;5033899;28;20037;-75
2023/10/09 04:13:52;;;;;;;14.52;7.40;;;16.10;99.90;;;;;;5035845;28;20045;-74
2023/10/09 04:16:34;;;;;;;15.82;6.90;;;16.10;99.90;;;;;;5032793;28;20048;-75
2023/10/09 04:19:10;;;;;;;15.15;7.20;;;16.00;99.90;;;;;;5033351;28;20049;-76
2023/10/09 04:21:37;;;;;;;17.63;7.40;;;16.00;99.90;;;;;;5032935;28;20083;-75
2023/10/09 04:24:22;;;;;;;19.90;7.80;;;16.10;99.90;;;;;;5032930;28;20053;-75
2023/10/09 04:26:55;;;;;;;21.27;8.13;;;16.10;99.90;;;;;;5014917;28;20489;-75
2023/10/09 04:29:28;;;;;;;16.75;8.40;;;16.10;99.90;;;;;;5051968;28;20116;-75
2023/10/09 04:32:00;;;;;;;15.93;7.53;;;16.00;99.90;;;;;;5051656;28;20374;-74
2023/10/09 04:34:34;;;;;;;20.95;7.50;;;16.00;99.90;;;;;;5052538;28;20448;-74
2023/10/09 04:37:01;;;;;;;18.77;7.63;;;16.00;99.90;;;;;;5052971;28;20087;-74
2023/10/09 04:47:36;;;;;;;21.33;7.30;;;16.00;99.90;;;;;;5031173;28;20136;-77
2023/10/09 04:58:00;;;;;;;20.92;7.75;;;16.00;99.90;;;;;;5051595;28;20198;-77
2023/10/09 05:02:56;;;;;;;15.20;8.18;;;16.00;99.90;;;;;;5049951;28;20163;-75
2023/10/09 05:08:21;;;;;;;17.67;8.02;;;16.00;99.90;;;;;;5003860;28;20051;-73
2023/10/09 05:16:25;;;;;;;17.75;8.00;;;16.00;99.90;;;;;;5034689;28;20466;-78
2023/10/09 05:18:59;;;;;;;18.60;7.97;;;16.00;99.90;;;;;;5034112;28;20399;-78
2023/10/09 05:35:04;;;;;;;17.45;7.45;;;16.00;99.90;;;;;;5049968;28;20437;-76
2023/10/09 05:37:26;;;;;;;20.48;7.00;;;16.00;99.90;;;;;;5049867;28;20431;-76
2023/10/09 05:42:42;;;;;;;20.60;7.80;;;16.10;99.90;;;;;;5033092;28;20141;-76
2023/10/09 05:47:54;;;;;;;15.20;6.80;;;16.20;99.90;;;;;;5037069;28;20135;-76
2023/10/09 06:03:23;;;;;;;20.90;8.70;;;16.10;99.90;;;;;;5054737;28;20077;-76
2023/10/09 06:16:59;;;;;;;20.90;7.85;;;16.10;99.90;;;;;;5040318;28;20085;-76
2023/10/09 06:19:28;;;;;;;;;;;16.10;99.90;;;;;;5037737;28;20037;-75
2023/10/09 06:24:54;;;;;;;17.55;7.32;;;16.10;99.90;;;;;;5055891;28;20057;-75
2023/10/09 06:32:51;;;;;;;22.30;7.40;;;16.10;99.90;;;;;;5036987;28;20089;-75
2023/10/09 06:35:30;;;;;;;21.52;6.93;;;16.10;99.90;;;;;;5052047;28;20445;-75
2023/10/09 06:45:54;;;;;;;16.58;6.68;;;16.10;99.90;;;;;;5055278;28;20049;-75
2023/10/09 06:51:15;;;;;;;21.92;7.50;;;16.10;99.90;;;;;;5055119;28;20503;-76
2023/10/09 06:58:55;;;;;;;17.80;7.32;;;16.10;99.90;;;;;;5036493;28;20049;-75
2023/10/09 07:04:18;;;;;;;16.80;6.85;;;16.00;99.90;;;;;;5054009;28;20475;-75
2023/10/09 07:17:21;;;;;;;18.25;6.65;;;16.10;99.90;;;;;;5035501;28;20060;-75
2023/10/09 07:24:49;;;;;;;19.20;7.18;;;16.10;99.90;;;;;;5036077;28;20053;-76
2023/10/09 07:27:43;;;;;;;15.27;6.60;;;16.10;99.90;;;;;;5054525;28;20128;-76
2023/10/09 07:32:52;;;;;;;20.50;7.15;;;16.10;99.90;;;;;;5036295;28;20496;-76
2023/10/09 07:35:46;;;;;;;18.63;6.90;;;16.10;99.90;;;;;;5036752;28;20055;-76
2023/10/09 07:38:08;;;;;;;23.55;7.30;;;16.10;99.90;;;;;;5035777;28;20132;-76
2023/10/09 07:40:59;;;;;;;18.17;6.45;;;16.20;99.90;;;;;;5054530;28;20047;-76
2023/10/09 07:43:45;;;;;;;18.05;6.80;;;16.20;99.90;;;;;;5036232;28;20060;-77
2023/10/09 07:46:32;;;;;;;20.10;6.50;;;16.20;99.90;;;;;;5035591;28;20202;-76
2023/10/09 07:49:08;;;;;;;16.67;6.63;;;16.20;99.90;;;;;;5053563;28;20057;-76
2023/10/09 07:51:36;;;;;;;21.42;6.60;;;16.20;99.90;;;;;;5035603;28;20056;-76
2023/10/09 07:54:08;;;;;;;14.90;5.80;;;16.20;99.90;;;;;;5053697;28;20424;-76
2023/10/09 07:56:41;;;;;;;22.13;6.63;;;16.30;99.90;;;;;;5036199;28;20052;-75
2023/10/09 07:59:11;;;;;;;24.20;6.75;;;16.30;99.90;;;;;;5052204;28;20045;-75
2023/10/09 08:01:52;;;;;;;18.52;6.03;;;16.30;99.90;;;;;;5054222;28;20052;-77
2023/10/09 08:04:37;;;;;;;18.45;6.28;;;16.30;99.90;;;;;;5036072;28;20479;-77
2023/10/09 08:07:06;;;;;;;20.02;6.43;;;16.30;99.90;;;;;;5052855;28;20051;-75
2023/10/09 08:09:47;;;;;;;17.05;6.07;;;16.30;99.90;;;;;;5035969;28;20049;-75
2023/10/09 08:12:13;;;;;;;16.85;6.25;;;16.30;99.90;;;;;;5053672;28;20052;-76
2023/10/09 08:14:43;;;;;;;22.25;6.28;;;16.40;99.90;;;;;;5035024;28;20545;-75
2023/10/09 08:17:21;;;;;;;17.05;6.25;;;16.40;99.90;;;;;;5053833;28;20037;-76
2023/10/09 08:19:54;;;;;;;18.73;6.15;;;16.40;99.90;;;;;;5034871;28;20053;-75
2023/10/09 08:24:56;;;;;;;15.15;5.95;;;16.50;99.90;;;;;;5053318;28;20060;-75
2023/10/09 08:33:04;;;;;;;17.60;5.90;;;16.60;99.90;;;;;;4996904;28;20049;-75
2023/10/09 08:35:48;;;;;;;14.80;5.63;;;16.60;99.90;;;;;;5026882;28;20128;-75
2023/10/09 08:38:17;;;;;;;18.30;5.68;;;16.60;99.90;;;;;;5032144;28;20090;-75
2023/10/09 08:40:46;;;;;;;19.27;6.10;;;16.60;99.90;;;;;;5031625;28;20057;-75
2023/10/09 08:43:19;;;;;;;20.17;6.13;;;16.60;99.90;;;;;;5015191;28;20045;-75
2023/10/09 08:45:45;;;;;;;17.17;6.60;;;16.60;99.90;;;;;;5034964;28;20053;-75
2023/10/09 08:48:15;;;;;;;19.83;6.40;;;16.60;99.90;;;;;;5051966;28;20061;-75
2023/10/09 08:50:44;;;;;;;18.35;6.28;;;16.70;99.90;;;;;;5053041;28;20392;-75
2023/10/09 08:53:11;;;;;;;16.83;6.22;;;16.70;99.90;;;;;;5035110;28;20476;-75
2023/10/09 08:55:40;;;;;;;18.27;6.50;;;16.70;99.90;;;;;;5034596;28;20049;-75
2023/10/09 08:58:18;;;;;;;21.70;6.38;;;16.70;99.90;;;;;;5052569;28;20045;-75
2023/10/09 09:00:45;;;;;;;21.08;6.82;;;16.70;99.90;;;;;;5032939;28;20045;-75
2023/10/09 09:03:18;;;;;;;16.58;6.10;;;16.70;99.90;;;;;;5031954;28;20469;-75
2023/10/09 09:05:54;;;;;;;19.05;6.15;;;16.70;99.90;;;;;;5015159;28;20041;-75
2023/10/09 09:08:30;;;;;;;21.75;6.82;;;16.80;99.90;;;;;;5047231;28;20041;-75
2023/10/09 09:11:13;;;;;;;20.57;6.23;;;16.90;99.90;;;;;;5033825;28;20460;-75
2023/10/09 09:13:58;;;;;;;14.63;5.78;;;17.00;99.90;;;;;;5052755;28;20041;-75
2023/10/09 09:16:31;;;;;;;17.90;6.30;;;17.00;99.90;;;;;;5033841;28;20049;-75
2023/10/09 09:19:13;;;;;;;18.20;6.38;;;17.00;99.90;;;;;;5052080;28;20555;-75
2023/10/09 09:21:42;;;;;;;12.95;5.80;;;17.00;99.90;;;;;;5052681;28;20049;-75
2023/10/09 09:26:45;;;;;;;19.35;7.38;;;17.10;99.90;;;;;;5040737;28;20120;-75
2023/10/09 09:29:17;;;;;;;20.05;8.00;;;17.10;99.90;;;;;;5033633;28;20404;-74
2023/10/09 09:31:54;;;;;;;28.67;13.75;;;17.10;99.90;;;;;;5051426;28;20040;-73
2023/10/09 09:34:25;;;;;;;17.45;8.23;;;17.10;99.90;;;;;;5034306;28;20048;-74
2023/10/09 09:36:57;;;;;;;16.20;7.30;;;17.20;99.90;;;;;;5031990;28;20053;-74
2023/10/09 09:39:30;;;;;;;22.13;9.70;;;17.20;99.90;;;;;;5052416;28;20426;-75
2023/10/09 09:41:58;;;;;;;20.95;6.75;;;17.20;99.90;;;;;;5034615;28;20087;-76
2023/10/09 09:44:30;;;;;;;19.73;7.55;;;17.20;99.90;;;;;;5033321;28;20060;-76
2023/10/09 09:46:59;;;;;;;17.90;6.75;;;17.20;99.90;;;;;;5051250;28;20046;-76
2023/10/09 09:49:31;;;;;;;18.13;6.03;;;17.30;99.90;;;;;;5034201;28;20057;-75
2023/10/09 09:52:01;;;;;;;21.48;7.55;;;17.30;99.90;;;;;;5033299;28;20115;-74
2023/10/09 09:54:27;;;;;;;21.13;7.43;;;17.30;99.90;;;;;;5033746;28;20049;-73
2023/10/09 09:56:55;;;;;;;14.77;6.40;;;17.30;99.90;;;;;;5019769;28;20399;-75
2023/10/09 09:59:28;;;;;;;17.92;6.90;;;17.30;99.90;;;;;;5033660;28;20041;-72
2023/10/09 10:02:06;;;;;;;20.58;7.55;;;17.30;99.90;;;;;;5052210;28;20440;-72
2023/10/09 10:04:35;;;;;;;17.38;5.72;;;17.40;99.90;;;;;;5052318;28;20387;-72
2023/10/09 10:07:06;;;;;;;16.83;6.57;;;17.30;99.90;;;;;;5033487;28;20045;-72
2023/10/09 10:09:41;;;;;;;21.23;6.05;;;17.30;99.90;;;;;;5034092;28;20058;-72
2023/10/09 10:12:10;;;;;;;15.55;6.30;;;17.30;99.90;;;;;;5051208;28;20049;-74
2023/10/09 10:15:08;;;;;;;19.63;6.28;;;17.30;99.90;;;;;;5051382;28;20072;-73
2023/10/09 10:18:00;;;;;;;19.60;6.75;;;17.30;99.90;;;;;;4998828;28;20088;-73
2023/10/09 10:20:26;;;;;;;17.90;5.95;;;17.40;99.90;;;;;;5021507;28;20065;-75
2023/10/09 10:23:17;;;;;;;20.05;5.70;;;17.50;99.90;;;;;;5051874;28;20037;-74
2023/10/09 10:25:48;;;;;;;21.55;6.10;;;17.60;99.90;;;;;;5052076;28;20135;-74
2023/10/09 10:28:38;;;;;;;13.73;5.70;;;17.70;99.90;;;;;;5035696;28;20472;-74
2023/10/09 10:31:11;;;;;;;14.50;5.60;;;17.80;99.90;;;;;;5055546;28;20086;-75
2023/10/09 10:33:54;;;;;;;13.45;4.50;;;17.90;99.90;;;;;;5054916;28;20048;-75
2023/10/09 10:36:23;;;;;;;15.88;4.30;;;18.10;99.90;;;;;;5055574;28;20056;-75
2023/10/09 10:39:19;;;;;;;13.95;5.10;;;18.50;99.90;;;;;;5037261;28;20139;-75
2023/10/09 10:42:00;;;;;;;15.18;4.60;;;18.60;99.90;;;;;;5054746;28;20044;-77
2023/10/09 10:44:42;;;;;;;12.43;4.20;;;18.70;99.90;;;;;;5055439;28;20041;-71
2023/10/09 10:47:26;;;;;;;14.35;4.53;;;18.70;99.90;;;;;;5055108;28;20132;-72
2023/10/09 10:50:10;;;;;;;10.70;3.97;;;18.70;99.90;;;;;;5037400;28;20080;-70
2023/10/09 10:52:42;;;;;;;11.48;4.03;;;18.70;99.90;;;;;;5055417;28;20045;-70
2023/10/09 10:55:48;;;;;;;13.57;4.70;;;18.50;99.90;;;;;;5036289;28;20056;-69
2023/10/09 10:58:23;;;;;;;10.25;3.95;;;18.40;99.90;;;;;;5054676;28;20141;-70
2023/10/09 11:03:55;;;;;;;15.15;4.30;;;18.10;99.90;;;;;;5033118;28;20061;-69
2023/10/09 11:06:36;;;;;;;9.85;4.25;;;18.00;99.90;;;;;;5035073;28;20057;-69
2023/10/09 11:09:20;;;;;;;12.73;5.13;;;18.00;99.90;;;;;;5043543;28;20098;-69
2023/10/09 11:11:47;;;;;;;11.90;4.50;;;17.90;99.90;;;;;;5054376;28;20388;-73
2023/10/09 11:14:23;;;;;;;13.88;4.65;;;17.80;99.90;;;;;;5054274;28;20057;-70
2023/10/09 11:16:57;;;;;;;12.90;5.03;;;17.80;99.90;;;;;;5036330;28;20484;-71
2023/10/09 11:22:28;;;;;;;10.63;4.03;;;17.80;99.90;;;;;;5053453;28;20053;-70
2023/10/09 11:25:00;;;;;;;12.43;4.57;;;17.70;99.90;;;;;;5052906;28;20107;-71
2023/10/09 11:27:28;;;;;;;10.30;3.92;;;17.60;99.90;;;;;;5035954;28;20081;-71
2023/10/09 11:29:54;;;;;;;11.98;4.25;;;17.70;99.90;;;;;;5035474;28;20082;-71
2023/10/09 11:32:23;;;;;;;10.35;3.70;;;17.70;99.90;;;;;;5054486;28;20430;-70
2023/10/09 11:34:53;;;;;;;12.50;3.47;;;17.80;99.90;;;;;;5054216;28;20109;-70
2023/10/09 11:39:57;;;;;;;12.40;3.10;;;18.10;99.90;;;;;;5034977;28;20059;-71
2023/10/09 11:45:22;;;;;;;5.22;2.47;;;18.20;99.90;;;;;;5053247;28;20462;-71
2023/10/09 11:47:59;;;;;;;10.65;3.28;;;18.20;99.90;;;;;;5054097;28;20522;-71
2023/10/09 11:50:51;;;;;;;9.20;3.30;;;18.20;99.90;;;;;;5054346;28;20053;-71
2023/10/09 11:55:52;;;;;;;11.43;3.38;;;18.70;99.90;;;;;;5053258;28;20060;-71
2023/10/09 11:58:22;;;;;;;13.93;3.40;;;19.10;99.90;;;;;;5053216;28;20136;-71
2023/10/09 12:01:16;;;;;;;9.63;3.30;;;19.50;99.90;;;;;;5035941;28;20123;-71
2023/10/09 12:03:49;;;;;;;11.25;3.22;;;19.90;99.90;;;;;;5036469;28;20468;-71
2023/10/09 12:06:18;;;;;;;8.93;2.85;;;20.60;99.90;;;;;;5053049;28;20041;-71
2023/10/09 12:08:48;;;;;;;8.25;3.00;;;20.80;99.90;;;;;;5053722;28;20484;-72
2023/10/09 12:11:28;;;;;;;7.50;2.83;;;20.60;99.90;;;;;;5035489;28;20111;-71
2023/10/09 12:13:57;;;;;;;10.77;3.50;;;20.30;99.90;;;;;;5052743;28;20045;-71
2023/10/09 12:16:27;;;;;;;11.30;3.08;;;20.10;99.90;;;;;;5053659;28;20044;-71
2023/10/09 12:18:54;;;;;;;6.75;2.88;;;20.00;99.90;;;;;;5051949;28;20033;-72
2023/10/09 12:21:23;;;;;;;10.70;3.53;;;19.90;99.90;;;;;;5035279;28;20136;-71
2023/10/09 12:23:49;;;;;;;12.65;3.55;;;19.70;99.90;;;;;;5053193;28;20048;-71
2023/10/09 12:26:15;;;;;;;8.90;3.53;;;19.60;99.90;;;;;;5034927;28;20052;-71
2023/10/09 12:28:45;;;;;;;14.15;3.72;;;19.50;99.90;;;;;;5053001;28;20044;-71
2023/10/09 12:31:15;;;;;;;12.40;3.67;;;19.20;99.90;;;;;;5035650;28;20045;-70
2023/10/09 12:33:41;;;;;;;11.05;3.42;;;19.10;99.90;;;;;;5034667;28;20040;-71
2023/10/09 12:36:20;;;;;;;12.18;3.88;;;18.90;99.90;;;;;;5053028;28;20433;-71
2023/10/09 12:38:54;;;;;;;11.65;3.63;;;18.80;99.90;;;;;;5052655;28;20068;-71
2023/10/09 12:41:25;;;;;;;10.32;3.42;;;18.60;99.90;;;;;;5052406;28;20556;-70
2023/10/09 12:43:52;;;;;;;12.60;3.47;;;18.50;99.90;;;;;;5052801;28;20045;-70
2023/10/09 12:46:22;;;;;;;13.00;3.97;;;18.40;99.90;;;;;;5053276;28;20052;-71
2023/10/09 12:48:49;;;;;;;9.27;3.55;;;18.30;99.90;;;;;;5033789;28;20059;-71
2023/10/09 12:51:18;;;;;;;11.30;3.42;;;18.30;99.90;;;;;;5034576;28;20040;-71
2023/10/09 12:53:54;;;;;;;8.50;3.08;;;18.30;99.90;;;;;;5052278;28;20049;-71
2023/10/09 12:56:22;;;;;;;12.40;3.83;;;18.40;99.90;;;;;;5053031;28;20060;-71
2023/10/09 12:58:54;;;;;;;9.27;3.30;;;18.30;99.90;;;;;;5051746;28;20520;-71
2023/10/09 13:01:20;;;;;;;7.50;3.20;;;18.30;99.90;;;;;;5052507;28;20487;-72
2023/10/09 13:03:49;;;;;;;11.65;4.30;;;18.40;99.90;;;;;;5034701;28;20135;-72
2023/10/09 13:06:15;;;;;;;12.52;3.30;;;18.40;99.90;;;;;;5031608;28;20049;-71
2023/10/09 13:08:42;;;;;;;8.57;3.35;;;18.40;99.90;;;;;;5026214;28;20045;-71
2023/10/09 13:11:11;;;;;;;10.85;2.97;;;18.40;99.90;;;;;;5032244;28;20045;-71
2023/10/09 13:13:41;;;;;;;9.23;3.20;;;18.40;99.90;;;;;;5044094;28;20063;-74
2023/10/09 13:16:22;;;;;;;9.88;2.90;;;18.40;99.90;;;;;;5050101;28;20730;-73
2023/10/09 13:19:05;;;;;;;9.90;2.90;;;18.40;99.90;;;;;;5037463;28;20033;-73
2023/10/09 13:21:34;;;;;;;11.77;3.17;;;18.50;99.90;;;;;;5050636;28;20045;-73
2023/10/09 13:24:01;;;;;;;8.88;2.90;;;18.40;99.90;;;;;;5031441;28;20053;-71
2023/10/09 13:26:30;;;;;;;7.80;2.65;;;18.30;99.90;;;;;;5043667;28;20055;-73
2023/10/09 13:28:57;;;;;;;11.15;3.10;;;18.30;99.90;;;;;;5032172;28;20045;-76
2023/10/09 13:31:26;;;;;;;7.63;2.88;;;18.30;99.90;;;;;;5032432;28;20049;-74
2023/10/09 13:33:59;;;;;;;8.82;2.70;;;18.30;99.90;;;;;;5032235;28;20128;-72
2023/10/09 13:36:30;;;;;;;10.48;2.83;;;18.30;99.90;;;;;;5049608;28;20773;-71
2023/10/09 13:39:21;;;;;;;9.77;3.70;;;18.30;99.90;;;;;;5029535;28;20103;-72
2023/10/09 13:41:49;;;;;;;10.57;3.20;;;18.30;99.90;;;;;;5048284;28;20123;-72
2023/10/09 13:44:16;;;;;;;8.55;3.50;;;18.30;99.90;;;;;;5031702;28;20049;-71
2023/10/09 13:46:41;;;;;;;8.95;3.35;;;18.40;99.90;;;;;;5063360;28;20048;-72
2023/10/09 13:49:14;;;;;;;10.70;3.03;;;18.30;99.90;;;;;;5059423;28;20075;-71
2023/10/09 13:51:46;;;;;;;9.82;3.17;;;18.30;99.90;;;;;;5030934;28;20045;-71
2023/10/09 13:54:21;;;;;;;8.27;2.70;;;18.30;99.90;;;;;;5033846;28;20052;-72
2023/10/09 13:56:52;;;;;;;8.02;2.80;;;18.20;99.90;;;;;;5063085;28;20430;-71
2023/10/09 13:59:21;;;;;;;7.28;2.50;;;18.20;99.90;;;;;;5031141;28;20131;-72
2023/10/09 14:01:48;;;;;;;9.77;3.00;;;18.10;99.90;;;;;;5062880;28;20105;-73
2023/10/09 14:04:18;;;;;;;8.98;2.67;;;18.10;99.90;;;;;;5055090;28;20053;-74
2023/10/09 14:06:45;;;;;;;8.45;2.97;;;18.20;99.90;;;;;;5037458;28;20044;-73
2023/10/09 14:09:24;;;;;;;6.93;2.55;;;18.10;99.90;;;;;;5038618;28;20044;-71
2023/10/09 14:12:06;;;;;;;9.40;2.58;;;18.10;99.90;;;;;;5054299;28;20411;-71
2023/10/09 14:14:49;;;;;;;8.85;2.55;;;18.10;99.90;;;;;;5029996;28;20553;-72
2023/10/09 14:17:23;;;;;;;6.70;2.47;;;18.20;99.90;;;;;;5034380;28;20459;-75
2023/10/09 14:19:50;;;;;;;5.72;2.30;;;18.20;99.90;;;;;;5035020;28;20049;-73
2023/10/09 14:22:29;;;;;;;8.30;2.40;;;18.20;99.90;;;;;;5033465;28;20051;-71
2023/10/09 14:24:55;;;;;;;8.35;2.78;;;18.20;99.90;;;;;;5041364;28;20044;-73
2023/10/09 14:27:25;;;;;;;7.28;2.50;;;18.10;99.90;;;;;;5035787;28;20037;-72
2023/10/09 14:30:01;;;;;;;6.47;2.45;;;18.00;99.90;;;;;;5035403;28;20488;-72
2023/10/09 14:32:33;;;;;;;6.55;2.55;;;18.00;99.90;;;;;;5058534;28;20544;-76
2023/10/09 14:35:02;;;;;;;9.45;2.58;;;18.00;99.90;;;;;;5056910;28;20090;-75
2023/10/09 14:37:28;;;;;;;8.43;2.65;;;17.90;99.90;;;;;;5047022;28;20049;-71
2023/10/09 14:39:55;;;;;;;7.10;2.53;;;17.80;99.90;;;;;;5056244;28;20395;-73
2023/10/09 14:42:22;;;;;;;8.55;2.13;;;17.80;99.90;;;;;;5035275;28;20606;-76
2023/10/09 14:44:49;;;;;;;5.20;2.33;;;17.70;99.90;;;;;;5052029;28;20033;-77
2023/10/09 14:47:16;;;;;;;5.43;2.00;;;17.70;99.90;;;;;;5035053;28;20048;-73
2023/10/09 14:49:46;;;;;;;6.22;2.28;;;17.60;99.90;;;;;;5053544;28;20106;-72
2023/10/09 14:52:16;;;;;;;5.75;2.30;;;17.60;99.90;;;;;;5038899;28;20037;-71
2023/10/09 14:54:44;;;;;;;5.60;2.10;;;17.70;99.90;;;;;;5038149;28;20052;-73
2023/10/09 14:57:11;;;;;;;6.00;2.22;;;17.80;99.90;;;;;;5032804;28;20118;-73
2023/10/09 14:59:37;;;;;;;6.22;2.22;;;17.80;99.90;;;;;;5034463;28;20053;-73
2023/10/09 15:02:05;;;;;;;5.95;2.38;;;17.80;99.90;;;;;;5051569;28;20076;-76
2023/10/09 15:04:31;;;;;;;7.30;2.35;;;17.80;99.90;;;;;;5037690;28;20108;-72
2023/10/09 15:06:57;;;;;;;8.57;2.63;;;17.80;99.90;;;;;;5033521;28;20045;-72
2023/10/09 15:09:24;;;;;;;7.90;2.45;;;17.80;99.90;;;;;;5041849;28;20132;-71
2023/10/09 15:11:50;;;;;;;4.65;2.03;;;17.80;99.90;;;;;;5050518;28;20378;-71
2023/10/09 15:14:18;;;;;;;4.80;1.90;;;17.80;99.90;;;;;;5030346;28;20099;-70
2023/10/09 15:16:45;;;;;;;4.20;1.80;;;17.70;99.90;;;;;;5037507;28;20037;-70
2023/10/09 15:19:11;;;;;;;5.18;1.95;;;17.60;99.90;;;;;;5044706;28;20053;-72
2023/10/09 15:21:43;;;;;;;7.47;2.55;;;17.60;99.90;;;;;;5059611;28;20182;-71
2023/10/09 15:24:15;;;;;;;4.93;1.90;;;17.60;99.90;;;;;;5052965;28;20051;-71
2023/10/09 15:26:53;;;;;;;7.50;2.00;;;17.50;99.90;;;;;;5034910;28;20045;-73
2023/10/09 15:29:23;;;;;;;6.57;2.05;;;17.50;99.90;;;;;;5047467;28;20057;-73
2023/10/09 15:31:50;;;;;;;5.30;2.00;;;17.40;99.90;;;;;;5034526;28;20080;-71
2023/10/09 15:34:18;;;;;;;7.50;2.20;;;17.40;99.90;;;;;;5052604;28;20037;-70
2023/10/09 15:36:46;;;;;;;7.38;2.67;;;17.30;99.90;;;;;;5063789;28;20466;-71
2023/10/09 15:39:13;;;;;;;8.23;2.75;;;17.20;99.90;;;;;;5036422;28;20048;-71